Portada
METAR-TAF:

METAR-TAF

Aeroports :

Dammam, Aràbia Saudita

latitud: 26-28N, longitud: 049-47E, altitud: 22 m

Observació

L'informe es va fer fa 1 hora i 4 minuts, a les 17:00 UTC
Vent 5 kt del Nord/Nord-Est
Temperatura 31°C
Humitat 33%
Pressió 1009 hPa
Visibilitat 10 km o més
sense núvols per sota de 1500 mi sense presència de cumulonimbus.

METAR: OEDF 261700Z 03005KT CAVOK 31/13 Q1009 NOSIG

Hora: 21:04 (18:04 UTC)

Pronòstic

L'informe es va fer fa 2 hores i 54 minuts, a les 15:10 UTC
Pronòstic vàlid del 26 a les 18 UTC al 27 a les 24 UTC
Vent 12 kt del Nord/Nord-Oest
Visibilitat: 7000 m
Evolucionant progressivament
l' 27 a les 09 UTC al 27 a les 11 UTC
Vent 19 kt del Nord/Nord-Oest
Probabilitat 30% :
Temporalment
l' 27 a les 08 UTC al 27 a les 17 UTC
Visibilitat: 4000 m
torb alta de pols

TAF: OEDF 261510Z 2618/2724 33012KT 7000 NSC BECMG 2709/2711 34019KT PROB30 TEMPO 2708/2717 4000 BLDU

Observacions i pronòstics meteorològics de més de 4000 aeroports (METAR i TAF).

Les estacions disponibles són els punts grocs i vermells al mapa.

Posi el ratolí al punt desitjat per veure el nom de l'estació.

Feu clic per veure les observacions i els pronòstics meteorològics.

Per canviar el mapa: feu clic els botons verds amb una creu de color negre per apropar; al botó verd amb un guió per allunyar la imatge; o en les fletxes verdes per a mapes adjacents.


METAR-TAF: